Time;durP1;ratioP1;P1;durP2;ratioP2;P2;SDS_P1;SDS_P2;PMS_P1;PMS_P2;Temp;Humidity;BMP_temperature;BMP_pressure;BME280_temperature;BME280_humidity;BME280_pressure;Samples;Min_cycle;Max_cycle;Signal;HPM_P1;HPM_P2
2021/01/29 00:04:16;;;;;;;70.00;22.65;;;;;;;9.03;100.00;99737.47;10427051;28;20044;-81
2021/01/29 00:09:19;;;;;;;71.90;23.35;;;;;;;9.06;100.00;99725.97;10434203;28;20037;-81
2021/01/29 00:14:19;;;;;;;53.97;19.92;;;;;;;8.73;100.00;99676.47;10415357;28;20060;-81
2021/01/29 00:19:19;;;;;;;63.53;19.15;;;;;;;9.08;100.00;99718.28;10408489;28;20462;-81
2021/01/29 00:24:20;;;;;;;53.40;16.45;;;;;;;9.02;100.00;99693.56;10399461;28;20040;-81
2021/01/29 00:29:21;;;;;;;51.58;15.70;;;;;;;9.02;100.00;99687.41;10408447;28;20486;-81
2021/01/29 00:34:21;;;;;;;49.78;14.35;;;;;;;9.09;100.00;99668.59;10438394;28;20048;-82
2021/01/29 00:39:21;;;;;;;50.20;14.38;;;;;;;9.00;100.00;99651.97;10404068;28;20098;-81
2021/01/29 00:44:22;;;;;;;42.53;12.25;;;;;;;8.48;100.00;99562.38;10425640;28;20041;-81
2021/01/29 00:49:23;;;;;;;44.08;11.43;;;;;;;9.21;100.00;99654.78;10416684;28;20052;-81
2021/01/29 00:54:23;;;;;;;40.83;10.93;;;;;;;8.93;100.00;99587.25;10416539;28;20048;-81
2021/01/29 00:59:23;;;;;;;35.85;10.80;;;;;;;8.67;100.00;99554.03;10433577;28;20041;-83
2021/01/29 01:04:26;;;;;;;;;;;;;;;9.07;100.00;99598.09;10406330;28;20486;-81
2021/01/29 01:09:26;;;;;;;40.13;10.32;;;;;;;9.02;100.00;99580.38;10424680;28;19925;-82
2021/01/29 01:14:27;;;;;;;32.75;10.00;;;;;;;8.94;100.00;99567.25;10442653;28;20068;-83
2021/01/29 01:19:27;;;;;;;40.83;11.02;;;;;;;8.96;100.00;99554.94;10432960;28;20029;-83
2021/01/29 01:24:28;;;;;;;32.72;11.20;;;;;;;8.99;100.00;99548.00;10401392;28;20036;-81
2021/01/29 01:29:31;;;;;;;29.75;10.50;;;;;;;8.99;100.00;99537.25;10451717;28;20314;-81
2021/01/29 01:34:31;;;;;;;;;;;;;;;8.96;100.00;99527.19;10432902;28;20734;-81
2021/01/29 01:39:32;;;;;;;31.67;9.10;;;;;;;8.74;100.00;99467.84;10410222;28;19917;-80
2021/01/29 01:44:41;;;;;;;19.33;8.10;;;;;;;8.71;100.00;99447.06;10417906;28;20029;-79
2021/01/29 01:49:42;;;;;;;16.00;7.28;;;;;;;8.70;100.00;99413.16;10431843;28;20053;-81
2021/01/29 01:54:51;;;;;;;17.33;6.82;;;;;;;9.01;100.00;99446.00;10433866;28;20414;-81
2021/01/29 01:59:58;;;;;;;17.10;7.22;;;;;;;8.79;100.00;99400.09;10443838;28;20040;-81
2021/01/29 02:05:01;;;;;;;20.02;8.05;;;;;;;9.03;100.00;99446.34;10437495;28;20116;-80
2021/01/29 02:10:02;;;;;;;;;;;;;;;9.06;100.00;99440.22;10433588;28;20106;-80
2021/01/29 02:15:09;;;;;;;20.13;10.48;;;;;;;8.77;100.00;99386.28;10431343;28;19917;-80
2021/01/29 02:20:26;;;;;;;19.85;9.55;;;;;;;9.03;100.00;99419.41;10436297;28;20488;-80
2021/01/29 02:25:32;;;;;;;21.80;9.85;;;;;;;9.06;100.00;99402.47;10414921;28;20056;-80
2021/01/29 02:30:50;;;;;;;22.23;9.73;;;;;;;9.07;100.00;99387.84;10428699;28;20048;-79
2021/01/29 02:36:36;;;;;;;19.95;9.93;;;;;;;9.03;100.00;99362.78;10416104;28;20049;-80
2021/01/29 02:41:56;;;;;;;21.83;10.50;;;;;;;9.02;100.00;99342.41;10429172;28;20029;-81
2021/01/29 02:47:06;;;;;;;18.20;10.25;;;;;;;9.06;100.00;99337.78;10412817;28;20068;-81
2021/01/29 02:52:33;;;;;;;18.58;9.27;;;;;;;8.81;100.00;99268.47;10416966;28;20485;-81
2021/01/29 02:57:43;;;;;;;23.60;9.68;;;;;;;8.08;100.00;99150.31;10415994;28;20127;-81
2021/01/29 03:02:53;;;;;;;18.40;8.57;;;;;;;9.17;100.00;99290.03;10413171;28;20741;-80
2021/01/29 03:08:10;;;;;;;15.98;8.60;;;;;;;8.89;100.00;99221.53;10424872;28;20043;-81
2021/01/29 03:13:19;;;;;;;22.70;9.35;;;;;;;8.81;100.00;99203.81;10443488;28;20051;-82
2021/01/29 03:18:25;;;;;;;24.85;9.57;;;;;;;9.09;100.00;99231.88;10408643;28;20040;-80
2021/01/29 03:23:39;;;;;;;21.65;8.88;;;;;;;9.17;100.00;99230.72;10417523;28;20470;-81
2021/01/29 03:28:43;;;;;;;17.38;7.45;;;;;;;9.23;100.00;99234.53;10406601;28;20264;-81
2021/01/29 03:33:44;;;;;;;16.15;7.63;;;;;;;9.20;100.00;99208.38;10409027;28;20468;-81
2021/01/29 03:38:50;;;;;;;12.90;7.53;;;;;;;9.18;100.00;99205.28;10404075;28;20045;-82
2021/01/29 03:44:02;;;;;;;12.15;8.10;;;;;;;8.37;100.00;99078.41;10420778;28;20033;-80
2021/01/29 03:49:28;;;;;;;10.43;5.97;;;;;;;9.13;100.00;99224.56;10411973;28;20550;-83
2021/01/29 03:54:35;;;;;;;10.80;3.10;;;;;;;8.92;100.00;99233.44;10425207;28;20548;-82
2021/01/29 03:59:48;;;;;;;10.38;2.95;;;;;;;8.87;100.00;99231.16;10415752;28;20044;-80
2021/01/29 04:05:00;;;;;;;14.35;2.70;;;;;;;8.71;100.00;99226.16;10402161;28;20037;-81
2021/01/29 04:10:04;;;;;;;10.20;1.67;;;;;;;8.65;100.00;99227.69;10430638;28;20078;-81
2021/01/29 04:15:31;;;;;;;15.15;2.50;;;;;;;8.52;100.00;99240.00;10428840;28;20068;-80
2021/01/29 04:20:40;;;;;;;15.50;2.17;;;;;;;7.78;100.00;99166.78;10415052;28;20036;-80
2021/01/29 04:25:43;;;;;;;13.02;1.80;;;;;;;8.08;100.00;99192.59;10422324;28;20678;-80
2021/01/29 04:30:46;;;;;;;25.15;4.32;;;;;;;8.41;100.00;99262.28;10416685;28;20032;-80
2021/01/29 04:35:48;;;;;;;19.88;2.92;;;;;;;8.43;100.00;99262.69;10398661;28;20033;-80
2021/01/29 04:40:57;;;;;;;22.95;3.05;;;;;;;8.39;100.00;99248.41;10406189;28;20052;-83
2021/01/29 04:46:19;;;;;;;20.30;3.20;;;;;;;8.45;100.00;99262.31;10432383;28;20041;-82
2021/01/29 04:51:35;;;;;;;18.08;3.13;;;;;;;8.51;100.00;99260.00;10436597;28;20138;-81
2021/01/29 04:56:47;;;;;;;23.25;3.25;;;;;;;8.53;100.00;99279.25;10417565;28;20073;-80
2021/01/29 05:01:58;;;;;;;24.95;4.00;;;;;;;8.41;100.00;99254.22;10421686;28;20044;-80
2021/01/29 05:07:23;;;;;;;25.23;3.70;;;;;;;8.61;100.00;99270.78;10425329;28;20060;-82
2021/01/29 05:12:52;;;;;;;18.60;2.67;;;;;;;7.82;100.00;99167.56;10429784;28;20049;-79
2021/01/29 05:18:32;;;;;;;23.35;3.03;;;;;;;8.64;100.00;99288.09;10429324;28;20391;-83
2021/01/29 05:23:49;;;;;;;17.13;2.88;;;;;;;8.39;100.00;99269.94;10438529;28;20132;-75
2021/01/29 05:29:17;;;;;;;22.52;4.30;;;;;;;8.12;100.00;99233.75;10429213;28;20045;-75
2021/01/29 05:34:38;;;;;;;14.65;2.15;;;;;;;8.50;100.00;99328.47;10432262;28;20140;-75
2021/01/29 05:40:15;;;;;;;17.48;2.08;;;;;;;8.51;100.00;99316.53;10431693;28;20052;-79
2021/01/29 05:45:51;;;;;;;15.38;2.30;;;;;;;8.41;100.00;99305.38;10434502;28;20041;-74
2021/01/29 05:51:06;;;;;;;28.27;4.13;;;;;;;8.35;100.00;99312.25;10420992;28;20056;-80
2021/01/29 05:56:17;;;;;;;35.72;6.35;;;;;;;8.11;100.00;99269.88;10445526;28;20367;-79
2021/01/29 06:01:30;;;;;;;34.55;4.78;;;;;;;8.48;100.00;99309.25;10419198;28;20118;-80
2021/01/29 06:06:33;;;;;;;39.53;6.97;;;;;;;8.45;100.00;99322.31;10437240;28;20041;-80
2021/01/29 06:12:04;;;;;;;40.70;7.72;;;;;;;8.42;100.00;99323.09;10439501;28;20048;-80
2021/01/29 06:17:29;;;;;;;41.88;5.85;;;;;;;8.49;100.00;99326.94;10436697;28;20552;-82
2021/01/29 06:23:07;;;;;;;41.90;6.93;;;;;;;8.55;100.00;99341.56;10439575;28;20043;-85
2021/01/29 06:28:10;;;;;;;41.60;6.65;;;;;;;8.56;100.00;99326.94;10436942;28;20045;-82
2021/01/29 06:33:15;;;;;;;43.50;7.07;;;;;;;8.25;100.00;99275.31;10422239;28;20072;-83
2021/01/29 06:38:54;;;;;;;51.00;7.45;;;;;;;8.61;100.00;99334.66;10433130;28;20060;-83
2021/01/29 06:44:19;;;;;;;42.17;6.85;;;;;;;8.66;100.00;99337.75;10338272;28;20048;-82
2021/01/29 06:49:35;;;;;;;33.28;6.40;;;;;;;8.64;100.00;99350.06;10418372;28;20068;-81
2021/01/29 06:54:53;;;;;;;40.13;7.57;;;;;;;8.18;100.00;99296.81;10430859;28;20045;-82
2021/01/29 07:00:02;;;;;;;37.80;5.72;;;;;;;8.61;100.00;99367.00;10435642;28;20033;-81
2021/01/29 07:05:32;;;;;;;33.40;4.95;;;;;;;8.62;100.00;99368.53;10434446;28;20501;-82
2021/01/29 07:10:48;;;;;;;42.33;6.63;;;;;;;8.60;100.00;99395.06;10426150;28;20036;-83
2021/01/29 07:16:10;;;;;;;43.78;7.40;;;;;;;8.66;99.91;99390.84;10428024;28;20703;-82
2021/01/29 07:21:34;;;;;;;33.92;6.43;;;;;;;8.25;99.42;99356.06;10426140;28;20036;-82
2021/01/29 07:26:34;;;;;;;38.45;5.90;;;;;;;8.62;99.00;99411.63;10419978;28;20041;-83
2021/01/29 07:31:44;;;;;;;33.00;6.47;;;;;;;8.50;99.89;99420.06;10422141;28;20033;-81
2021/01/29 07:43:45;;;;;;;39.30;5.85;;;;;;;7.19;99.01;99277.91;10366803;28;20466;-80
2021/01/29 07:49:43;;;;;;;;;;;;;;;;;;;;;
2021/01/29 07:55:09;;;;;;;41.67;5.97;;;;;;;8.26;100.00;99470.69;10437976;28;20059;-81
2021/01/29 08:00:35;;;;;;;46.70;7.22;;;;;;;8.24;100.00;99472.97;10471864;28;20060;-82
2021/01/29 08:05:47;;;;;;;38.70;6.63;;;;;;;8.27;100.00;99485.69;10452958;28;20496;-84
2021/01/29 08:10:50;;;;;;;36.15;7.57;;;;;;;8.34;100.00;99493.78;10435984;28;20119;-82
2021/01/29 08:15:59;;;;;;;49.78;7.95;;;;;;;8.32;100.00;99496.09;10460780;28;20050;-84
2021/01/29 08:21:17;;;;;;;44.58;7.38;;;;;;;8.29;100.00;99513.00;10457510;28;20033;-81
2021/01/29 08:26:34;;;;;;;55.92;8.70;;;;;;;8.36;100.00;99513.03;10448858;28;20459;-79
2021/01/29 08:31:40;;;;;;;51.10;7.70;;;;;;;8.39;100.00;99506.91;10471941;28;20036;-84
2021/01/29 08:36:59;;;;;;;43.08;6.97;;;;;;;8.50;100.00;99506.22;10474000;28;20062;-80
2021/01/29 08:42:22;;;;;;;48.67;8.00;;;;;;;8.27;100.00;99477.59;10469787;28;20122;-80
2021/01/29 08:47:37;;;;;;;43.80;7.28;;;;;;;8.56;99.41;99510.09;10469420;28;20098;-80
2021/01/29 08:52:59;;;;;;;42.80;6.88;;;;;;;8.79;98.67;99518.66;10432143;28;20485;-83
2021/01/29 08:58:25;;;;;;;39.45;7.93;;;;;;;8.58;97.89;99502.41;10430600;28;20709;-80
2021/01/29 09:03:48;;;;;;;46.00;7.38;;;;;;;7.44;96.83;99324.94;10432256;28;20042;-80
2021/01/29 09:08:55;;;;;;;;;;;;;;;8.88;96.61;99521.78;10453910;28;20044;-80
2021/01/29 09:14:12;;;;;;;44.35;6.43;;;;;;;8.87;97.59;99536.41;10450468;28;19920;-81
2021/01/29 09:19:18;;;;;;;38.85;6.50;;;;;;;8.96;95.64;99521.81;10440407;28;20469;-81
2021/01/29 09:24:30;;;;;;;38.47;6.78;;;;;;;8.42;95.67;99473.88;10422969;28;20061;-80
2021/01/29 09:29:51;;;;;;;35.85;6.13;;;;;;;8.89;93.75;99469.44;10454082;28;20041;-81
2021/01/29 09:34:59;;;;;;;31.23;6.65;;;;;;;10.30;88.47;99540.44;10443464;28;20040;-77
2021/01/29 09:40:05;;;;;;;33.22;5.45;;;;;;;9.54;90.24;99501.91;10439115;28;21625;-76
2021/01/29 09:45:14;;;;;;;39.33;7.15;;;;;;;9.19;92.59;99516.88;10443791;28;20049;-76
2021/01/29 09:50:22;;;;;;;34.80;6.38;;;;;;;8.64;93.93;99463.19;10463696;28;20072;-76
2021/01/29 09:56:01;;;;;;;36.67;6.80;;;;;;;9.24;92.93;99564.25;10450991;28;20055;-76
2021/01/29 10:01:10;;;;;;;36.60;6.78;;;;;;;9.24;93.07;99570.44;10475123;28;20047;-78
2021/01/29 10:06:20;;;;;;;32.50;5.35;;;;;;;9.13;93.15;99548.06;10431062;28;20131;-78
2021/01/29 10:11:41;;;;;;;32.08;6.30;;;;;;;9.13;93.18;99548.06;10467817;28;20043;-79
2021/01/29 10:16:55;;;;;;;35.33;5.45;;;;;;;9.23;93.61;99568.88;10442771;28;20035;-79
2021/01/29 10:21:59;;;;;;;27.88;5.22;;;;;;;9.21;94.26;99581.97;10453118;28;20047;-77
2021/01/29 10:27:09;;;;;;;26.45;4.93;;;;;;;9.17;93.78;99559.63;10472930;28;20137;-77
2021/01/29 10:32:21;;;;;;;36.33;6.10;;;;;;;8.89;92.78;99512.56;10449604;28;20040;-82
2021/01/29 10:37:39;;;;;;;32.08;5.43;;;;;;;8.31;93.14;99440.72;10456935;28;20032;-81
2021/01/29 10:42:49;;;;;;;41.08;6.82;;;;;;;9.26;93.80;99560.03;10463529;28;20051;-82
2021/01/29 10:47:59;;;;;;;44.15;6.35;;;;;;;9.16;94.47;99563.47;10462085;28;20045;-82
2021/01/29 10:53:11;;;;;;;36.47;6.25;;;;;;;8.98;94.98;99535.69;10424767;28;20060;-81
2021/01/29 10:58:45;;;;;;;50.63;8.43;;;;;;;9.24;95.16;99570.44;10420167;28;20033;-81
2021/01/29 11:03:55;;;;;;;40.60;6.13;;;;;;;9.05;94.81;99538.41;10409270;28;20047;-83
2021/01/29 11:08:58;;;;;;;41.90;6.95;;;;;;;9.27;95.13;99553.50;10431630;28;20139;-81
2021/01/29 11:14:18;;;;;;;48.03;7.50;;;;;;;9.41;94.20;99563.56;10396761;28;20029;-81
2021/01/29 11:19:34;;;;;;;43.25;7.53;;;;;;;9.27;93.47;99521.13;10424582;28;20040;-78
2021/01/29 11:25:06;;;;;;;56.63;9.77;;;;;;;9.25;92.93;99518.03;10440987;28;20082;-80
2021/01/29 11:30:18;;;;;;;39.03;8.90;;;;;;;9.39;92.12;99521.94;10428220;28;20492;-80
2021/01/29 11:35:28;;;;;;;42.17;6.90;;;;;;;9.66;91.65;99568.22;10421599;28;20477;-82
2021/01/29 11:40:48;;;;;;;46.30;7.18;;;;;;;9.60;91.99;99570.53;10443125;28;20405;-82
2021/01/29 11:45:50;;;;;;;46.55;7.40;;;;;;;8.89;94.27;99480.22;10440091;28;20037;-86
2021/01/29 11:50:57;;;;;;;40.65;6.13;;;;;;;9.06;95.26;99521.09;10435497;28;20069;-85
2021/01/29 11:56:17;;;;;;;37.20;7.28;;;;;;;8.73;96.71;99504.03;10455686;28;20123;-83
2021/01/29 12:01:29;;;;;;;42.13;8.85;;;;;;;8.71;96.00;99500.94;10466721;28;20036;-79
2021/01/29 12:06:32;;;;;;;44.40;7.40;;;;;;;9.26;95.78;99562.72;10467977;28;20029;-81
2021/01/29 12:11:49;;;;;;;52.00;8.98;;;;;;;9.37;94.47;99564.69;10453764;28;20032;-81
2021/01/29 12:16:57;;;;;;;37.72;6.07;;;;;;;9.03;96.42;99513.75;10440416;28;20036;-84
2021/01/29 12:22:28;;;;;;;34.90;5.97;;;;;;;9.32;96.49;99550.41;10450674;28;20036;-79
2021/01/29 12:27:41;;;;;;;66.90;7.60;;;;;;;8.27;97.61;99418.38;10440637;28;20849;-78
2021/01/29 12:33:18;;;;;;;60.78;8.73;;;;;;;9.05;99.84;99546.47;10454923;28;20155;-79
2021/01/29 12:38:36;;;;;;;65.18;9.45;;;;;;;9.17;100.00;99565.03;10467522;28;20583;-78
2021/01/29 12:44:14;;;;;;;57.08;8.25;;;;;;;8.60;99.61;99462.41;10453060;28;20037;-78
2021/01/29 12:49:45;;;;;;;46.30;7.80;;;;;;;9.03;100.00;99538.78;10412695;28;20041;-78
2021/01/29 12:54:57;;;;;;;57.72;9.82;;;;;;;9.18;99.96;99545.00;10374645;28;20072;-78
2021/01/29 13:00:16;;;;;;;54.38;9.00;;;;;;;9.12;98.82;99530.31;10426442;28;20046;-80
2021/01/29 13:05:27;;;;;;;49.03;8.00;;;;;;;8.75;100.00;99490.94;10403738;28;20029;-79
2021/01/29 13:10:35;;;;;;;44.25;8.48;;;;;;;8.67;100.00;99489.38;10375033;28;20684;-77
2021/01/29 13:15:44;;;;;;;57.92;8.85;;;;;;;9.00;100.00;99538.78;10390356;28;20377;-79
2021/01/29 13:20:48;;;;;;;57.90;8.18;;;;;;;9.04;100.00;99512.59;10403303;28;20033;-77
2021/01/29 13:26:10;;;;;;;65.70;9.00;;;;;;;9.31;100.00;99530.00;10421305;28;20051;-76
2021/01/29 13:31:21;;;;;;;48.97;8.13;;;;;;;9.32;100.00;99534.25;10412595;28;20072;-77
2021/01/29 13:36:34;;;;;;;49.17;7.60;;;;;;;9.39;98.29;99524.63;10387211;28;20044;-79
2021/01/29 13:41:45;;;;;;;42.88;7.68;;;;;;;9.32;95.30;99479.53;10423857;28;20486;-76
2021/01/29 13:46:50;;;;;;;49.22;7.40;;;;;;;9.87;94.54;99514.25;10414126;28;20040;-78
2021/01/29 13:52:00;;;;;;;45.55;7.20;;;;;;;9.56;91.23;99424.06;10413062;28;20047;-81
2021/01/29 13:57:29;;;;;;;35.42;6.60;;;;;;;10.03;91.84;99484.16;10447686;28;20824;-82
2021/01/29 14:02:47;;;;;;;45.45;7.55;;;;;;;10.33;90.15;99534.28;10423528;28;20085;-80
2021/01/29 14:07:50;;;;;;;35.42;6.78;;;;;;;10.06;89.50;99477.97;10412553;28;20126;-80
2021/01/29 14:12:59;;;;;;;45.50;7.82;;;;;;;10.34;90.07;99492.59;10428312;28;20540;-80
2021/01/29 14:18:05;;;;;;;42.08;7.57;;;;;;;10.46;89.80;99538.09;10433260;28;20474;-82
2021/01/29 14:23:13;;;;;;;38.08;6.45;;;;;;;10.10;87.38;99488.78;10417647;28;20063;-81
2021/01/29 14:28:29;;;;;;;39.78;5.78;;;;;;;10.05;88.27;99489.94;10419050;28;20509;-80
2021/01/29 14:33:35;;;;;;;40.25;6.30;;;;;;;10.32;87.46;99538.13;10415678;28;20054;-82
2021/01/29 14:39:17;;;;;;;40.63;8.88;;;;;;;10.26;87.75;99550.47;10417783;28;20037;-79
2021/01/29 14:44:46;;;;;;;29.10;5.07;;;;;;;10.18;88.33;99538.13;10399909;28;20535;-81
2021/01/29 14:50:07;;;;;;;35.22;5.57;;;;;;;10.40;86.90;99555.88;10422664;28;20056;-81
2021/01/29 14:55:12;;;;;;;37.55;5.75;;;;;;;10.30;87.88;99562.06;10419031;28;20076;-80
2021/01/29 15:00:17;;;;;;;33.38;6.35;;;;;;;10.40;86.67;99566.69;10418609;28;20103;-81
2021/01/29 15:05:32;;;;;;;42.13;6.75;;;;;;;10.25;87.01;99565.13;10426479;28;20704;-81
2021/01/29 15:10:34;;;;;;;30.42;5.47;;;;;;;9.93;88.53;99571.31;10407226;28;20172;-81
2021/01/29 15:15:43;;;;;;;35.10;6.47;;;;;;;10.06;87.81;99575.16;10428770;28;20037;-81
2021/01/29 15:20:49;;;;;;;37.70;6.53;;;;;;;10.02;88.13;99590.63;10430090;28;20033;-82
2021/01/29 15:25:52;;;;;;;35.47;6.03;;;;;;;9.64;88.50;99517.34;10440060;28;20697;-83
2021/01/29 15:30:53;;;;;;;32.90;6.55;;;;;;;9.68;88.88;99593.66;10424482;28;20040;-83
2021/01/29 15:36:15;;;;;;;36.47;4.68;;;;;;;9.53;90.21;99610.97;10426028;28;20431;-81
2021/01/29 15:41:29;;;;;;;31.80;5.23;;;;;;;9.40;90.63;99620.56;10440040;28;20708;-81
2021/01/29 15:46:45;;;;;;;43.45;7.03;;;;;;;9.31;91.27;99629.78;10421636;28;20522;-81
2021/01/29 15:51:45;;;;;;;29.73;6.30;;;;;;;9.12;92.17;99638.16;10424112;28;20141;-83
2021/01/29 15:56:58;;;;;;;33.55;5.43;;;;;;;8.91;92.97;99643.44;10403557;28;20268;-83
2021/01/29 16:02:02;;;;;;;36.70;5.35;;;;;;;8.83;93.53;99670.34;10426674;28;20442;-82
2021/01/29 16:07:27;;;;;;;32.95;4.97;;;;;;;8.84;93.91;99671.91;10394240;28;20049;-82
2021/01/29 16:12:40;;;;;;;41.38;5.88;;;;;;;8.60;93.98;99667.13;10399989;28;20029;-82
2021/01/29 16:17:54;;;;;;;37.58;4.90;;;;;;;8.36;94.08;99652.28;10401642;28;20680;-83
2021/01/29 16:23:22;;;;;;;37.03;4.90;;;;;;;8.55;94.44;99691.72;10372725;28;20429;-82
2021/01/29 16:28:24;;;;;;;28.65;4.65;;;;;;;8.71;94.55;99721.84;10419548;28;20045;-82
2021/01/29 16:33:26;;;;;;;32.20;5.03;;;;;;;8.30;94.17;99676.09;10394042;28;20555;-79
2021/01/29 16:38:35;;;;;;;29.52;5.47;;;;;;;8.35;94.20;99686.53;10382075;28;20513;-81
2021/01/29 16:43:36;;;;;;;25.17;4.57;;;;;;;8.54;94.17;99722.50;10414940;28;20069;-82
2021/01/29 16:48:37;;;;;;;30.23;5.93;;;;;;;8.42;94.62;99705.47;10432361;28;20144;-78
2021/01/29 16:53:39;;;;;;;24.30;4.40;;;;;;;8.63;94.56;99731.81;10418062;28;20119;-80
2021/01/29 16:58:50;;;;;;;31.37;4.10;;;;;;;8.72;93.99;99755.72;10423075;28;20069;-80
2021/01/29 17:03:56;;;;;;;30.00;6.05;;;;;;;8.69;93.79;99767.25;10424886;28;20112;-77
2021/01/29 17:09:13;;;;;;;25.52;3.72;;;;;;;8.51;93.64;99734.00;10394599;28;20051;-79
2021/01/29 17:14:30;;;;;;;27.08;3.20;;;;;;;8.61;93.47;99762.97;10420357;28;20036;-80
2021/01/29 17:19:33;;;;;;;24.15;4.30;;;;;;;8.33;93.75;99739.97;10426504;28;20037;-82
2021/01/29 17:24:59;;;;;;;;;;;;;;;8.61;93.65;99787.22;10429165;28;20658;-79
2021/01/29 17:30:09;;;;;;;28.95;5.85;;;;;;;8.43;94.34;99760.88;10425116;28;19920;-78
2021/01/29 17:35:13;;;;;;;21.55;4.57;;;;;;;8.15;94.57;99722.88;10431456;28;20041;-79
2021/01/29 17:40:31;;;;;;;18.95;3.40;;;;;;;8.08;94.47;99760.47;10428053;28;20128;-82
2021/01/29 17:45:40;;;;;;;22.30;5.93;;;;;;;8.54;95.27;99808.69;10422918;28;20034;-80
2021/01/29 17:50:46;;;;;;;25.42;5.75;;;;;;;8.08;94.90;99749.72;10429083;28;20134;-83
2021/01/29 17:55:49;;;;;;;16.25;3.25;;;;;;;8.09;94.74;99745.88;10399070;28;20043;-81
2021/01/29 18:01:20;;;;;;;17.70;3.72;;;;;;;8.58;94.29;99825.66;10373869;28;20033;-83
2021/01/29 18:06:24;;;;;;;16.70;3.60;;;;;;;8.47;95.02;99836.31;10400565;28;20061;-83
2021/01/29 18:12:23;;;;;;;20.70;3.53;;;;;;;7.13;94.83;99639.50;10415309;28;20061;-86
2021/01/29 18:17:33;;;;;;;21.30;3.35;;;;;;;8.15;96.09;99806.31;10398810;28;20539;-81
2021/01/29 18:22:43;;;;;;;25.27;3.53;;;;;;;8.15;98.01;99825.16;10393825;28;20409;-81
2021/01/29 18:27:58;;;;;;;18.77;3.67;;;;;;;7.46;99.67;99748.22;10391893;28;20921;-82
2021/01/29 18:33:03;;;;;;;23.13;5.05;;;;;;;8.23;100.00;99918.31;10399144;28;20033;-81
2021/01/29 18:38:07;;;;;;;21.75;4.20;;;;;;;7.51;100.00;99804.38;10389966;28;20144;-82
2021/01/29 18:43:11;;;;;;;34.42;5.03;;;;;;;8.01;100.00;99901.91;10412137;28;20037;-82
2021/01/29 18:48:22;;;;;;;19.60;4.15;;;;;;;8.04;100.00;99938.88;10421764;28;20106;-82
2021/01/29 18:53:25;;;;;;;32.30;5.43;;;;;;;7.23;100.00;99841.59;10408510;28;20132;-82
2021/01/29 18:58:26;;;;;;;19.88;4.45;;;;;;;6.58;100.00;99743.84;10472034;28;20400;-81
2021/01/29 19:03:31;;;;;;;27.58;5.78;;;;;;;7.84;100.00;99945.50;10461131;28;20040;-81
2021/01/29 19:08:35;;;;;;;22.50;4.25;;;;;;;8.04;100.00;99960.41;10437721;28;20032;-80
2021/01/29 19:13:35;;;;;;;16.95;3.60;;;;;;;7.73;100.00;99923.03;10421502;28;20124;-79
2021/01/29 19:18:45;;;;;;;19.90;4.13;;;;;;;7.84;100.00;99972.41;10459882;28;20040;-79
2021/01/29 19:23:48;;;;;;;14.00;4.13;;;;;;;6.99;100.00;99851.59;10449746;28;20048;-81
2021/01/29 19:28:57;;;;;;;18.13;4.65;;;;;;;7.45;100.00;99940.25;10452631;28;20055;-82
2021/01/29 19:34:24;;;;;;;21.60;3.45;;;;;;;7.77;100.00;100042.25;10468282;28;20035;-80
2021/01/29 19:39:25;;;;;;;16.02;4.15;;;;;;;7.49;100.00;99978.75;10471142;28;20388;-80
2021/01/29 19:44:26;;;;;;;17.50;3.20;;;;;;;7.54;100.00;99986.53;10459117;28;20036;-81
2021/01/29 19:49:27;;;;;;;25.10;4.97;;;;;;;7.43;100.00;100012.44;10436107;28;20050;-80
2021/01/29 19:54:27;;;;;;;13.68;3.25;;;;;;;7.55;100.00;100028.44;10422473;28;20068;-81
2021/01/29 19:59:27;;;;;;;21.10;4.55;;;;;;;7.12;100.00;99981.94;10421805;28;20578;-82
2021/01/29 20:04:29;;;;;;;22.90;4.80;;;;;;;7.05;100.00;99997.94;10419142;28;20070;-82
2021/01/29 20:09:29;;;;;;;16.90;4.63;;;;;;;7.35;100.00;100043.03;10405822;28;20470;-83
2021/01/29 20:14:30;;;;;;;24.15;3.85;;;;;;;7.13;100.00;100037.28;10407247;28;20041;-81
2021/01/29 20:19:31;;;;;;;9.25;2.85;;;;;;;7.10;100.00;100029.13;10419000;28;20417;-81
2021/01/29 20:24:32;;;;;;;20.27;3.70;;;;;;;7.19;100.00;100062.72;10411546;28;20021;-80
2021/01/29 20:29:34;;;;;;;19.55;3.33;;;;;;;6.82;100.00;100018.59;10402923;28;20091;-81
2021/01/29 20:34:35;;;;;;;15.88;3.63;;;;;;;6.94;100.00;100045.34;10404314;28;20060;-80
2021/01/29 20:39:35;;;;;;;19.13;3.80;;;;;;;6.66;100.00;100003.34;10427968;28;20067;-83
2021/01/29 20:44:39;;;;;;;22.63;3.10;;;;;;;7.11;100.00;100098.66;10402628;28;20462;-80
2021/01/29 20:49:39;;;;;;;25.88;3.60;;;;;;;6.68;100.00;100006.44;10437270;28;20037;-81
2021/01/29 20:54:40;;;;;;;16.17;3.42;;;;;;;7.07;100.00;100054.81;10424108;28;20040;-81
2021/01/29 20:59:40;;;;;;;24.85;4.68;;;;;;;7.08;100.00;100061.75;10428239;28;20033;-82
2021/01/29 21:04:41;;;;;;;19.60;3.78;;;;;;;7.05;100.00;100077.78;10429748;28;20041;-83
2021/01/29 21:09:42;;;;;;;37.10;9.25;;;;;;;6.91;100.00;100057.56;10432012;28;20106;-83
2021/01/29 21:14:42;;;;;;;23.80;5.43;;;;;;;6.97;100.00;100082.25;10428835;28;20041;-82
2021/01/29 21:19:43;;;;;;;19.98;3.47;;;;;;;6.90;100.00;100092.84;10437468;28;20033;-82
2021/01/29 21:24:43;;;;;;;20.92;3.88;;;;;;;6.67;100.00;100058.59;10431293;28;20034;-82
2021/01/29 21:29:44;;;;;;;15.15;3.72;;;;;;;6.70;100.00;100063.28;10422338;28;20124;-81
2021/01/29 21:34:44;;;;;;;19.58;3.85;;;;;;;6.89;100.00;100069.78;10427123;28;20037;-82
2021/01/29 21:39:45;;;;;;;19.20;3.75;;;;;;;6.93;100.00;100081.38;10410076;28;20156;-82
2021/01/29 21:44:45;;;;;;;23.77;5.18;;;;;;;6.65;100.00;100044.75;10411824;28;20034;-83
2021/01/29 21:49:49;;;;;;;14.95;3.78;;;;;;;6.77;100.00;100076.88;10428127;28;20069;-83
2021/01/29 21:54:50;;;;;;;17.10;3.13;;;;;;;6.29;100.00;99995.66;10420971;28;20030;-80
2021/01/29 21:59:50;;;;;;;24.70;3.60;;;;;;;6.74;100.00;100069.50;10428815;28;20052;-75
2021/01/29 22:04:51;;;;;;;20.90;3.17;;;;;;;6.33;100.00;100012.63;10426324;28;20037;-82
2021/01/29 22:09:51;;;;;;;31.13;4.47;;;;;;;6.82;100.00;100075.00;10401556;28;20036;-78
2021/01/29 22:14:52;;;;;;;19.73;3.45;;;;;;;6.37;100.00;100044.13;10427587;28;20033;-77
2021/01/29 22:19:53;;;;;;;23.33;4.25;;;;;;;6.59;100.00;100083.75;10410170;28;20073;-77
2021/01/29 22:24:53;;;;;;;20.30;3.50;;;;;;;6.71;100.00;100107.81;10415900;28;20032;-76
2021/01/29 22:29:54;;;;;;;21.33;3.67;;;;;;;6.67;100.00;100112.31;10416322;28;20040;-78
2021/01/29 22:34:54;;;;;;;30.25;4.30;;;;;;;6.45;100.00;100078.06;10426456;28;20029;-79
2021/01/29 22:39:56;;;;;;;21.25;4.03;;;;;;;6.43;100.00;100085.69;10429817;28;20470;-79
2021/01/29 22:44:57;;;;;;;29.13;4.45;;;;;;;6.46;100.00;100111.84;10415033;28;20920;-80
2021/01/29 22:49:57;;;;;;;22.83;3.65;;;;;;;6.41;100.00;100101.38;10440115;28;20049;-79
2021/01/29 22:54:58;;;;;;;15.80;3.05;;;;;;;6.47;100.00;100097.28;10441326;28;20045;-79
2021/01/29 22:59:59;;;;;;;23.88;4.30;;;;;;;6.22;100.00;100092.13;10463356;28;20047;-76
2021/01/29 23:04:59;;;;;;;16.80;2.35;;;;;;;6.38;100.00;100107.44;10458380;28;20485;-77
2021/01/29 23:09:59;;;;;;;13.13;2.55;;;;;;;6.27;100.00;100099.91;10435899;28;20565;-79
2021/01/29 23:15:00;;;;;;;17.95;2.25;;;;;;;6.07;100.00;100079.50;10453487;28;20024;-78
2021/01/29 23:20:00;;;;;;;14.68;2.75;;;;;;;6.00;100.00;100063.22;10459637;28;20811;-79
2021/01/29 23:25:04;;;;;;;17.35;2.90;;;;;;;6.31;100.00;100116.88;10467025;28;20794;-80
2021/01/29 23:30:07;;;;;;;17.33;2.85;;;;;;;6.21;100.00;100106.66;10465359;28;20043;-80
2021/01/29 23:35:11;;;;;;;20.00;3.22;;;;;;;6.26;100.00;100119.81;10452101;28;20769;-80
2021/01/29 23:40:13;;;;;;;14.93;3.30;;;;;;;6.16;100.00;100109.59;10453761;28;20055;-79
2021/01/29 23:45:14;;;;;;;15.27;2.60;;;;;;;5.61;100.00;100028.13;10472592;28;20129;-79
2021/01/29 23:50:15;;;;;;;15.48;2.70;;;;;;;5.77;100.00;100077.19;10419357;28;20418;-79
2021/01/29 23:55:15;;;;;;;21.17;2.90;;;;;;;6.04;100.00;100112.38;10395891;28;20053;-79
